Time;durP1;ratioP1;P1;durP2;ratioP2;P2;SDS_P1;SDS_P2;PMS_P1;PMS_P2;Temp;Humidity;BMP_temperature;BMP_pressure;BME280_temperature;BME280_humidity;BME280_pressure;Samples;Min_cycle;Max_cycle;Signal;HPM_P1;HPM_P2
2022/12/13 00:01:18;;;;;;;0.40;0.40;;;-2.40;99.90;;;;;;5024205;28;20982;-80
2022/12/13 00:03:44;;;;;;;0.50;0.50;;;-2.50;99.90;;;;;;5022580;28;20214;-80
2022/12/13 00:06:11;;;;;;;0.60;0.60;;;-2.50;99.90;;;;;;5018141;28;20945;-81
2022/12/13 00:08:37;;;;;;;0.43;0.43;;;-2.50;99.90;;;;;;5027008;28;20183;-80
2022/12/13 00:11:06;;;;;;;0.57;0.57;;;-2.50;99.90;;;;;;5022767;28;20458;-80
2022/12/13 00:13:32;;;;;;;0.70;0.70;;;-2.60;99.90;;;;;;5027032;28;20876;-80
2022/12/13 00:15:59;;;;;;;0.50;0.50;;;-2.70;99.90;;;;;;5015286;28;20446;-80
2022/12/13 00:18:25;;;;;;;0.50;0.50;;;-2.80;99.90;;;;;;5018795;28;20516;-80
2022/12/13 00:20:50;;;;;;;0.40;0.40;;;-3.00;99.90;;;;;;5038824;28;20462;-80
2022/12/13 00:23:16;;;;;;;0.50;0.50;;;-2.90;99.90;;;;;;5024658;28;20435;-81
2022/12/13 00:25:41;;;;;;;0.40;0.40;;;-2.90;99.90;;;;;;5028506;28;20183;-80
2022/12/13 00:28:07;;;;;;;0.50;0.50;;;-2.80;99.90;;;;;;5025818;28;20184;-80
2022/12/13 00:30:33;;;;;;;0.40;0.40;;;-3.00;99.90;;;;;;5025824;28;20284;-80
2022/12/13 00:32:59;;;;;;;0.57;0.57;;;-3.10;99.90;;;;;;5032907;28;20199;-80
2022/12/13 00:35:24;;;;;;;0.67;0.67;;;-3.10;99.90;;;;;;5041982;28;20441;-80
2022/12/13 00:37:50;;;;;;;0.40;0.40;;;-3.00;99.90;;;;;;5031383;28;20239;-80
2022/12/13 00:40:15;;;;;;;0.50;0.50;;;-3.20;99.90;;;;;;5028937;28;20196;-81
2022/12/13 00:42:41;;;;;;;0.60;0.60;;;-3.10;99.90;;;;;;5029129;28;20544;-80
2022/12/13 00:45:08;;;;;;;0.50;0.50;;;-3.10;99.90;;;;;;5026176;28;20188;-80
2022/12/13 00:47:34;;;;;;;0.60;0.60;;;-3.20;99.90;;;;;;5028098;28;20230;-80
2022/12/13 00:49:59;;;;;;;0.60;0.60;;;-3.10;99.90;;;;;;5030993;28;20481;-80
2022/12/13 00:52:25;;;;;;;0.40;0.40;;;-3.10;99.90;;;;;;5025929;28;20473;-80
2022/12/13 00:54:50;;;;;;;0.60;0.60;;;-3.20;99.90;;;;;;5030180;28;20641;-80
2022/12/13 00:57:16;;;;;;;0.70;0.70;;;-3.20;99.90;;;;;;5028934;28;20278;-80
2022/12/13 00:59:41;;;;;;;0.57;0.57;;;-3.10;99.90;;;;;;5027446;28;20640;-80
2022/12/13 01:02:07;;;;;;;0.47;0.47;;;-3.10;99.90;;;;;;5024772;28;20239;-80
2022/12/13 01:04:33;;;;;;;0.70;0.70;;;-3.10;99.90;;;;;;5031449;28;20195;-80
2022/12/13 01:06:58;;;;;;;0.67;0.67;;;-3.10;99.90;;;;;;5027682;28;20206;-80
2022/12/13 01:09:27;;;;;;;0.50;0.50;;;-3.30;99.90;;;;;;5028263;28;20231;-80
2022/12/13 01:11:58;;;;;;;0.60;0.60;;;-3.40;99.90;;;;;;5023193;28;20188;-80
2022/12/13 01:14:24;;;;;;;0.60;0.60;;;-3.40;99.90;;;;;;5021069;28;20446;-81
2022/12/13 01:16:49;;;;;;;0.50;0.50;;;-3.30;99.90;;;;;;5024298;28;20513;-80
2022/12/13 01:19:15;;;;;;;0.50;0.50;;;-3.30;99.90;;;;;;5025375;28;20491;-80
2022/12/13 01:21:41;;;;;;;0.53;0.53;;;-3.40;99.90;;;;;;5026977;28;20545;-80
2022/12/13 01:24:06;;;;;;;0.60;0.60;;;-3.30;99.90;;;;;;5026984;28;20303;-80
2022/12/13 01:26:33;;;;;;;0.40;0.40;;;-3.20;99.90;;;;;;5023161;28;20195;-80
2022/12/13 01:28:59;;;;;;;0.80;0.80;;;-3.20;99.90;;;;;;5019533;28;20199;-80
2022/12/13 01:31:25;;;;;;;0.67;0.67;;;-3.30;99.90;;;;;;5018731;28;20446;-80
2022/12/13 01:33:50;;;;;;;0.60;0.60;;;-3.40;99.90;;;;;;5029681;28;20453;-81
2022/12/13 01:36:18;;;;;;;0.50;0.50;;;-3.60;99.90;;;;;;5028036;28;20559;-80
2022/12/13 01:38:44;;;;;;;0.47;0.47;;;-3.70;99.90;;;;;;5030308;28;20546;-81
2022/12/13 01:41:16;;;;;;;0.60;0.60;;;-3.60;99.90;;;;;;5022480;28;20450;-81
2022/12/13 01:43:41;;;;;;;0.60;0.60;;;-3.70;99.90;;;;;;5022308;28;20199;-81
2022/12/13 01:46:08;;;;;;;0.50;0.50;;;-3.70;99.90;;;;;;5028887;28;20785;-81
2022/12/13 01:48:38;;;;;;;0.50;0.50;;;-3.70;99.90;;;;;;5029696;28;20195;-80
2022/12/13 01:51:07;;;;;;;0.63;0.63;;;-3.80;99.90;;;;;;5044751;28;20446;-81
2022/12/13 01:53:35;;;;;;;0.60;0.60;;;-3.70;99.90;;;;;;5042448;28;20492;-80
2022/12/13 01:56:08;;;;;;;0.50;0.50;;;-3.60;99.90;;;;;;5028179;28;20438;-81
2022/12/13 01:58:36;;;;;;;0.47;0.47;;;-3.60;99.90;;;;;;5026976;28;20474;-81
2022/12/13 02:01:02;;;;;;;0.60;0.60;;;-3.60;99.90;;;;;;5021471;28;20976;-81
2022/12/13 02:03:28;;;;;;;0.57;0.57;;;-3.70;99.90;;;;;;5026744;28;20450;-81
2022/12/13 02:06:00;;;;;;;0.70;0.70;;;-3.70;99.90;;;;;;5023050;28;20813;-81
2022/12/13 02:08:27;;;;;;;0.60;0.60;;;-3.80;99.90;;;;;;5029535;28;20199;-81
2022/12/13 02:10:53;;;;;;;0.60;0.60;;;-3.80;99.90;;;;;;5022031;28;21292;-81
2022/12/13 02:13:18;;;;;;;0.70;0.70;;;-3.90;99.90;;;;;;5026205;28;20431;-81
2022/12/13 02:16:11;;;;;;;0.70;0.70;;;-3.90;99.90;;;;;;5025784;28;20831;-81
2022/12/13 02:18:55;;;;;;;0.70;0.70;;;-3.90;99.90;;;;;;5023036;28;20203;-81
2022/12/13 02:21:53;;;;;;;0.80;0.80;;;-3.90;99.90;;;;;;5025444;28;20481;-81
2022/12/13 02:24:40;;;;;;;0.70;0.70;;;-4.00;99.90;;;;;;5028565;28;20441;-81
2022/12/13 02:27:25;;;;;;;0.60;0.60;;;-4.00;99.90;;;;;;5027471;28;20468;-81
2022/12/13 02:30:18;;;;;;;0.50;0.50;;;-4.10;99.90;;;;;;5022786;28;20450;-81
2022/12/13 02:33:21;;;;;;;0.67;0.67;;;-4.00;99.90;;;;;;5024219;28;20540;-81
2022/12/13 02:36:05;;;;;;;0.60;0.60;;;-4.00;99.90;;;;;;5025333;28;20500;-81
2022/12/13 02:38:30;;;;;;;0.60;0.60;;;-3.90;99.90;;;;;;5031588;28;20540;-81
2022/12/13 02:41:07;;;;;;;0.60;0.60;;;-3.80;99.90;;;;;;5023859;28;20943;-81
2022/12/13 02:43:44;;;;;;;0.70;0.70;;;-3.90;99.90;;;;;;5025519;28;20914;-81
2022/12/13 02:46:11;;;;;;;0.60;0.60;;;-4.00;99.90;;;;;;5023414;28;20953;-81
2022/12/13 02:48:39;;;;;;;0.60;0.60;;;-4.10;99.90;;;;;;5029176;28;20454;-81
2022/12/13 02:51:07;;;;;;;0.53;0.53;;;-4.00;99.90;;;;;;5026383;28;20890;-81
2022/12/13 02:53:35;;;;;;;0.53;0.53;;;-3.90;99.90;;;;;;5025684;28;20443;-81
2022/12/13 02:56:00;;;;;;;0.70;0.70;;;-3.90;99.90;;;;;;5024893;28;20457;-81
2022/12/13 02:58:33;;;;;;;0.47;0.47;;;-3.90;99.90;;;;;;5025858;28;20446;-81
2022/12/13 03:01:17;;;;;;;0.70;0.70;;;-3.80;99.90;;;;;;5023645;28;20333;-81
2022/12/13 03:03:50;;;;;;;0.50;0.50;;;-3.70;99.90;;;;;;5022793;28;20963;-81
2022/12/13 03:06:36;;;;;;;0.60;0.60;;;-3.80;99.90;;;;;;5026939;28;20465;-81
2022/12/13 03:09:23;;;;;;;0.70;0.70;;;-3.80;99.90;;;;;;5026961;28;20508;-81
2022/12/13 03:15:19;;;;;;;0.70;0.70;;;-3.70;99.90;;;;;;5022138;28;20999;-82
2022/12/13 03:17:52;;;;;;;0.60;0.60;;;-3.60;99.90;;;;;;5029221;28;20501;-81
2022/12/13 03:20:23;;;;;;;0.47;0.47;;;-3.60;99.90;;;;;;5028104;28;20917;-81
2022/12/13 03:22:48;;;;;;;0.60;0.60;;;-3.60;99.90;;;;;;5026350;28;20454;-81
2022/12/13 03:25:14;;;;;;;0.50;0.50;;;-3.70;99.90;;;;;;5023763;28;20450;-81
2022/12/13 03:27:40;;;;;;;0.73;0.73;;;-3.70;99.90;;;;;;5022010;28;20188;-81
2022/12/13 03:30:06;;;;;;;0.60;0.60;;;-3.70;99.90;;;;;;5024699;28;20286;-82
2022/12/13 03:32:31;;;;;;;0.70;0.70;;;-3.70;99.90;;;;;;5012027;28;20234;-81
2022/12/13 03:34:57;;;;;;;0.70;0.70;;;-3.70;99.90;;;;;;5028937;28;20450;-81
2022/12/13 03:37:22;;;;;;;0.57;0.57;;;-3.60;99.90;;;;;;5024635;28;20269;-81
2022/12/13 03:39:48;;;;;;;0.50;0.50;;;-3.60;99.90;;;;;;5016808;28;20656;-81
2022/12/13 03:42:13;;;;;;;0.57;0.57;;;-3.60;99.90;;;;;;5021860;28;20652;-81
2022/12/13 03:44:39;;;;;;;0.50;0.50;;;-3.70;99.90;;;;;;5014847;28;20188;-81
2022/12/13 03:47:04;;;;;;;0.40;0.40;;;-3.80;99.90;;;;;;5026968;28;20675;-81
2022/12/13 03:49:30;;;;;;;0.60;0.60;;;-3.80;99.90;;;;;;5027834;28;20236;-81
2022/12/13 03:51:55;;;;;;;0.60;0.60;;;-3.90;99.90;;;;;;5027460;28;20187;-81
2022/12/13 03:54:21;;;;;;;0.50;0.50;;;-3.90;99.90;;;;;;5024830;28;20222;-81
2022/12/13 03:56:46;;;;;;;0.50;0.50;;;-3.90;99.90;;;;;;5026580;28;20207;-81
2022/12/13 03:59:12;;;;;;;0.47;0.47;;;-3.90;99.90;;;;;;5025349;28;20686;-81
2022/12/13 04:01:37;;;;;;;0.60;0.60;;;-3.90;99.90;;;;;;5020037;28;20179;-81
2022/12/13 04:04:03;;;;;;;0.57;0.57;;;-3.80;99.90;;;;;;5026148;28;20207;-81
2022/12/13 04:06:28;;;;;;;0.50;0.50;;;-3.90;99.90;;;;;;5028474;28;20270;-81
2022/12/13 04:08:54;;;;;;;0.60;0.60;;;-3.90;99.90;;;;;;5030303;28;20279;-81
2022/12/13 04:14:03;;;;;;;0.50;0.50;;;-3.80;99.90;;;;;;5030636;28;20222;-81
2022/12/13 04:16:29;;;;;;;0.70;0.70;;;-3.90;99.90;;;;;;5026173;28;21172;-82
2022/12/13 04:18:54;;;;;;;0.70;0.70;;;-3.90;99.90;;;;;;5028503;28;20672;-82
2022/12/13 04:21:20;;;;;;;0.60;0.60;;;-4.00;99.90;;;;;;5030974;28;20194;-81
2022/12/13 04:23:45;;;;;;;0.67;0.67;;;-4.20;99.90;;;;;;5033271;28;20206;-81
2022/12/13 04:26:11;;;;;;;0.63;0.63;;;-4.30;99.90;;;;;;5031298;28;20266;-81
2022/12/13 04:28:37;;;;;;;0.70;0.70;;;-4.30;99.90;;;;;;5029852;28;20270;-81
2022/12/13 04:31:03;;;;;;;0.70;0.70;;;-4.30;99.90;;;;;;5028179;28;20461;-81
2022/12/13 04:33:31;;;;;;;0.80;0.80;;;-4.40;99.90;;;;;;5029889;28;20188;-81
2022/12/13 04:35:56;;;;;;;0.80;0.80;;;-4.40;99.90;;;;;;5026097;28;20219;-81
2022/12/13 04:38:22;;;;;;;0.70;0.70;;;-4.30;99.90;;;;;;5029607;28;20521;-82
2022/12/13 04:40:48;;;;;;;0.70;0.70;;;-4.30;99.90;;;;;;5048103;28;20746;-82
2022/12/13 04:43:13;;;;;;;0.60;0.60;;;-4.30;99.90;;;;;;5029793;28;20203;-81
2022/12/13 04:45:39;;;;;;;0.70;0.70;;;-4.30;99.90;;;;;;5024516;28;20187;-81
2022/12/13 04:48:04;;;;;;;0.70;0.70;;;-4.20;99.90;;;;;;5024000;28;21167;-81
2022/12/13 04:50:30;;;;;;;0.60;0.60;;;-4.20;99.90;;;;;;5030664;28;20609;-82
2022/12/13 04:52:55;;;;;;;0.70;0.70;;;-4.20;99.90;;;;;;5030402;28;20643;-81
2022/12/13 04:55:21;;;;;;;0.50;0.50;;;-4.10;99.90;;;;;;5028142;28;20284;-81
2022/12/13 04:57:46;;;;;;;0.63;0.63;;;-4.00;99.90;;;;;;5028990;28;20226;-81
2022/12/13 05:00:13;;;;;;;0.83;0.83;;;-3.90;99.90;;;;;;5027878;28;20242;-82
2022/12/13 05:02:42;;;;;;;0.50;0.50;;;-3.90;99.90;;;;;;5027686;28;20718;-81
2022/12/13 05:05:09;;;;;;;0.60;0.60;;;-3.80;99.90;;;;;;5029916;28;20438;-82
2022/12/13 05:07:35;;;;;;;0.60;0.60;;;-3.80;99.90;;;;;;5030445;28;20450;-82
2022/12/13 05:10:01;;;;;;;0.70;0.70;;;-3.80;99.90;;;;;;5028520;28;20478;-81
2022/12/13 05:12:26;;;;;;;0.70;0.70;;;-3.70;99.90;;;;;;5026104;28;20198;-82
2022/12/13 05:14:52;;;;;;;0.70;0.70;;;-3.70;99.90;;;;;;5026154;28;20180;-82
2022/12/13 05:17:18;;;;;;;0.60;0.60;;;-3.70;99.90;;;;;;5026524;28;20219;-82
2022/12/13 05:19:44;;;;;;;0.60;0.60;;;-3.60;99.90;;;;;;5028652;28;20446;-81
2022/12/13 05:22:14;;;;;;;0.50;0.50;;;-3.70;99.90;;;;;;5028241;28;20549;-82
2022/12/13 05:24:43;;;;;;;0.60;0.60;;;-3.60;99.90;;;;;;5025808;28;20635;-81
2022/12/13 05:27:10;;;;;;;0.50;0.50;;;-3.60;99.90;;;;;;5028912;28;20438;-81
2022/12/13 05:29:36;;;;;;;0.50;0.50;;;-3.50;99.90;;;;;;5024077;28;20525;-81
2022/12/13 05:32:02;;;;;;;0.70;0.70;;;-3.50;99.90;;;;;;5022246;28;20569;-81
2022/12/13 05:34:28;;;;;;;0.70;0.70;;;-3.50;99.90;;;;;;5025355;28;20508;-81
2022/12/13 05:36:53;;;;;;;0.70;0.70;;;-3.50;99.90;;;;;;5028106;28;20470;-81
2022/12/13 05:39:19;;;;;;;0.73;0.73;;;-3.50;99.90;;;;;;5027860;28;20218;-82
2022/12/13 05:41:44;;;;;;;0.60;0.60;;;-3.40;99.90;;;;;;5029770;28;20562;-81
2022/12/13 05:44:12;;;;;;;0.60;0.60;;;-3.40;99.90;;;;;;5030865;28;20186;-81
2022/12/13 05:46:37;;;;;;;0.80;0.80;;;-3.30;99.90;;;;;;5026086;28;20184;-82
2022/12/13 05:49:03;;;;;;;0.60;0.60;;;-3.30;99.90;;;;;;5028905;28;20441;-81
2022/12/13 05:51:28;;;;;;;0.60;0.60;;;-3.30;99.90;;;;;;5028352;28;20278;-82
2022/12/13 05:53:54;;;;;;;0.60;0.60;;;-3.30;99.90;;;;;;5025991;28;20226;-82
2022/12/13 05:56:20;;;;;;;0.70;0.70;;;-3.20;99.90;;;;;;5023112;28;20191;-81
2022/12/13 05:58:45;;;;;;;0.67;0.67;;;-3.20;99.90;;;;;;5017917;28;20188;-81
2022/12/13 06:01:13;;;;;;;0.70;0.70;;;-3.20;99.90;;;;;;5022419;28;20256;-81
2022/12/13 06:03:40;;;;;;;0.50;0.50;;;-3.20;99.90;;;;;;5022221;28;20180;-82
2022/12/13 06:06:08;;;;;;;0.50;0.50;;;-3.10;99.90;;;;;;5027790;28;20446;-81
2022/12/13 06:08:33;;;;;;;0.70;0.70;;;-3.10;99.90;;;;;;5019880;28;20454;-81
2022/12/13 06:11:00;;;;;;;0.70;0.70;;;-3.10;99.90;;;;;;5025782;28;20797;-81
2022/12/13 06:13:26;;;;;;;0.60;0.60;;;-3.20;99.90;;;;;;5021139;28;20188;-81
2022/12/13 06:15:53;;;;;;;0.60;0.60;;;-3.10;99.90;;;;;;5025900;28;20466;-81
2022/12/13 06:18:18;;;;;;;0.60;0.60;;;-3.00;99.90;;;;;;5025132;28;20517;-81
2022/12/13 06:20:46;;;;;;;0.57;0.57;;;-3.00;99.90;;;;;;5028238;28;20461;-82
2022/12/13 06:23:11;;;;;;;0.70;0.70;;;-3.00;99.90;;;;;;5024628;28;20183;-82
2022/12/13 06:25:37;;;;;;;0.63;0.63;;;-2.90;99.90;;;;;;5029083;28;20440;-81
2022/12/13 06:28:03;;;;;;;0.60;0.60;;;-3.00;99.90;;;;;;5027070;28;20213;-80
2022/12/13 06:30:29;;;;;;;0.60;0.60;;;-2.90;99.90;;;;;;5024423;28;20260;-82
2022/12/13 06:32:55;;;;;;;0.60;0.60;;;-3.00;99.90;;;;;;5023312;28;20530;-81
2022/12/13 06:35:20;;;;;;;0.60;0.60;;;-3.00;99.90;;;;;;5026607;28;21027;-81
2022/12/13 06:37:51;;;;;;;0.57;0.57;;;-3.00;99.90;;;;;;5028866;28;20231;-81
2022/12/13 06:40:16;;;;;;;0.60;0.60;;;-3.00;99.90;;;;;;5025179;28;20322;-82
2022/12/13 06:42:42;;;;;;;0.60;0.60;;;-3.00;99.90;;;;;;5018732;28;20541;-81
2022/12/13 06:45:08;;;;;;;0.60;0.60;;;-2.90;99.90;;;;;;5025081;28;20184;-81
2022/12/13 06:47:34;;;;;;;0.63;0.63;;;-3.00;99.90;;;;;;5024895;28;20191;-81
2022/12/13 06:49:59;;;;;;;0.60;0.60;;;-3.00;99.90;;;;;;5027254;28;20481;-82
2022/12/13 06:52:25;;;;;;;0.50;0.50;;;-3.00;99.90;;;;;;5027568;28;20183;-81
2022/12/13 06:54:50;;;;;;;0.77;0.77;;;-3.00;99.90;;;;;;5025946;28;20865;-81
2022/12/13 06:57:16;;;;;;;0.50;0.50;;;-3.00;99.90;;;;;;5022074;28;20251;-80
2022/12/13 06:59:41;;;;;;;0.50;0.50;;;-3.10;99.90;;;;;;5025171;28;20180;-81
2022/12/13 07:02:07;;;;;;;0.80;0.80;;;-3.30;99.90;;;;;;5025725;28;20550;-81
2022/12/13 07:04:32;;;;;;;0.70;0.70;;;-3.30;99.90;;;;;;5026253;28;20184;-81
2022/12/13 07:06:58;;;;;;;0.70;0.70;;;-3.30;99.90;;;;;;5028597;28;20206;-81
2022/12/13 07:09:23;;;;;;;0.70;0.70;;;-3.40;99.90;;;;;;5026446;28;20225;-81
2022/12/13 07:11:49;;;;;;;0.70;0.70;;;-3.40;99.90;;;;;;5021616;28;20762;-81
2022/12/13 07:14:14;;;;;;;0.73;0.73;;;-3.40;99.90;;;;;;5025236;28;20218;-81
2022/12/13 07:16:40;;;;;;;0.60;0.60;;;-3.40;99.90;;;;;;5022146;28;20219;-80
2022/12/13 07:19:05;;;;;;;0.60;0.60;;;-3.40;99.90;;;;;;5016039;28;20188;-80
2022/12/13 07:21:31;;;;;;;0.70;0.70;;;-3.40;99.90;;;;;;5023042;28;20540;-80
2022/12/13 07:23:57;;;;;;;0.70;0.70;;;-3.40;99.90;;;;;;5030689;28;20180;-81
2022/12/13 07:26:23;;;;;;;0.60;0.60;;;-3.40;99.90;;;;;;5023993;28;20434;-81
2022/12/13 07:28:49;;;;;;;0.60;0.60;;;-3.40;99.90;;;;;;5027664;28;20660;-80
2022/12/13 07:31:14;;;;;;;0.60;0.60;;;-3.40;99.90;;;;;;5036633;28;20450;-80
2022/12/13 07:33:40;;;;;;;0.70;0.70;;;-3.40;99.90;;;;;;5023877;28;20196;-80
2022/12/13 07:36:08;;;;;;;0.80;0.80;;;-3.30;99.90;;;;;;5021382;28;20275;-80
2022/12/13 07:38:34;;;;;;;0.77;0.77;;;-3.30;99.90;;;;;;5023128;28;20195;-80
2022/12/13 07:41:00;;;;;;;0.60;0.60;;;-3.30;99.90;;;;;;5026675;28;20442;-80
2022/12/13 07:43:26;;;;;;;0.60;0.60;;;-3.30;99.90;;;;;;5032308;28;20836;-80
2022/12/13 07:45:52;;;;;;;0.80;0.80;;;-3.30;99.90;;;;;;5027318;28;20326;-80
2022/12/13 07:48:18;;;;;;;0.60;0.60;;;-3.40;99.90;;;;;;5019336;28;20682;-79
2022/12/13 07:50:44;;;;;;;0.60;0.60;;;-3.50;99.90;;;;;;5030749;28;20969;-79
2022/12/13 07:53:10;;;;;;;0.70;0.70;;;-3.50;99.90;;;;;;5030020;28;21310;-79
2022/12/13 07:55:36;;;;;;;0.70;0.70;;;-3.50;99.90;;;;;;5025169;28;20474;-81
2022/12/13 07:58:06;;;;;;;0.67;0.67;;;-3.50;99.90;;;;;;5031239;28;20218;-80
2022/12/13 08:00:32;;;;;;;0.70;0.70;;;-3.60;99.90;;;;;;5031262;28;20794;-80
2022/12/13 08:02:58;;;;;;;0.73;0.73;;;-3.60;99.90;;;;;;5029201;28;20448;-80
2022/12/13 08:05:24;;;;;;;0.60;0.60;;;-3.60;99.90;;;;;;5028082;28;20191;-80
2022/12/13 08:07:49;;;;;;;0.83;0.83;;;-3.70;99.90;;;;;;5031381;28;20446;-79
2022/12/13 08:10:15;;;;;;;0.60;0.60;;;-3.70;99.90;;;;;;5031148;28;20906;-79
2022/12/13 08:12:40;;;;;;;0.60;0.60;;;-3.70;99.90;;;;;;5031872;28;20198;-79
2022/12/13 08:15:06;;;;;;;0.70;0.70;;;-3.80;99.90;;;;;;5030271;28;20675;-79
2022/12/13 08:17:32;;;;;;;0.90;0.90;;;-3.80;99.90;;;;;;5028304;28;20306;-80
2022/12/13 08:19:57;;;;;;;0.80;0.80;;;-3.80;99.90;;;;;;5024763;28;20456;-79
2022/12/13 08:22:23;;;;;;;0.70;0.70;;;-3.80;99.90;;;;;;5017545;28;20199;-80
2022/12/13 08:24:48;;;;;;;0.70;0.70;;;-3.80;99.90;;;;;;5030245;28;20233;-80
2022/12/13 08:27:14;;;;;;;0.80;0.80;;;-3.80;99.90;;;;;;5023681;28;20213;-79
2022/12/13 08:29:39;;;;;;;0.60;0.60;;;-3.80;99.90;;;;;;5025702;28;20628;-79
2022/12/13 08:32:11;;;;;;;0.60;0.60;;;-3.80;99.90;;;;;;5026885;28;20643;-79
2022/12/13 08:34:37;;;;;;;0.80;0.80;;;-3.70;99.90;;;;;;5023726;28;20270;-79
2022/12/13 08:37:03;;;;;;;0.70;0.70;;;-3.60;99.90;;;;;;5024744;28;20476;-79
2022/12/13 08:39:34;;;;;;;0.60;0.60;;;-3.40;99.90;;;;;;5027572;28;20517;-80
2022/12/13 08:41:59;;;;;;;0.50;0.50;;;-3.30;99.90;;;;;;5025961;28;20454;-80
2022/12/13 08:44:25;;;;;;;0.70;0.70;;;-3.30;99.90;;;;;;5031318;28;20468;-80
2022/12/13 08:46:50;;;;;;;0.70;0.70;;;-3.20;99.90;;;;;;5030344;28;20693;-80
2022/12/13 08:49:15;;;;;;;0.70;0.70;;;-3.20;99.90;;;;;;5028959;28;20241;-80
2022/12/13 08:51:41;;;;;;;0.80;0.80;;;-3.10;99.90;;;;;;5024370;28;20343;-80
2022/12/13 08:54:06;;;;;;;0.70;0.70;;;-3.10;99.90;;;;;;5031729;28;20294;-80
2022/12/13 08:56:32;;;;;;;0.73;0.73;;;-3.10;99.90;;;;;;5025606;28;20306;-79
2022/12/13 08:58:58;;;;;;;0.50;0.50;;;-3.00;99.90;;;;;;5025351;28;20202;-79
2022/12/13 09:01:23;;;;;;;0.70;0.70;;;-2.90;99.90;;;;;;5024995;28;20191;-80
2022/12/13 09:03:48;;;;;;;0.70;0.70;;;-2.80;99.90;;;;;;5028313;28;20195;-80
2022/12/13 09:06:16;;;;;;;0.70;0.70;;;-2.80;99.90;;;;;;5028290;28;20191;-80
2022/12/13 09:08:42;;;;;;;0.60;0.60;;;-2.80;99.90;;;;;;5030109;28;20192;-80
2022/12/13 09:11:09;;;;;;;0.80;0.80;;;-2.70;99.90;;;;;;5027948;28;20447;-80
2022/12/13 09:13:36;;;;;;;0.60;0.60;;;-2.60;99.90;;;;;;5018599;28;20450;-79
2022/12/13 09:16:07;;;;;;;0.70;0.70;;;-2.40;99.90;;;;;;5024627;28;20442;-80
2022/12/13 09:18:32;;;;;;;0.60;0.60;;;-2.30;99.90;;;;;;5020296;28;20498;-79
2022/12/13 09:20:58;;;;;;;0.70;0.70;;;-2.10;99.90;;;;;;5024250;28;20450;-80
2022/12/13 09:23:24;;;;;;;0.50;0.50;;;-1.80;99.90;;;;;;5028507;28;20254;-80
2022/12/13 09:25:56;;;;;;;0.43;0.43;;;-1.60;99.90;;;;;;5024114;28;20298;-79
2022/12/13 09:28:22;;;;;;;0.67;0.67;;;-1.50;99.90;;;;;;5015929;28;20267;-80
2022/12/13 09:30:48;;;;;;;0.70;0.70;;;-1.50;99.90;;;;;;5027216;28;20545;-79
2022/12/13 09:33:14;;;;;;;0.60;0.60;;;-1.50;99.90;;;;;;5026299;28;20192;-80
2022/12/13 09:35:45;;;;;;;0.70;0.70;;;-1.60;99.90;;;;;;5029126;28;20449;-80
2022/12/13 09:38:11;;;;;;;0.60;0.60;;;-1.70;99.90;;;;;;5029220;28;20220;-79
2022/12/13 09:40:39;;;;;;;0.50;0.50;;;-1.80;99.90;;;;;;5028596;28;20519;-80
2022/12/13 09:43:21;;;;;;;0.50;0.50;;;-1.90;99.90;;;;;;5030719;28;20245;-80
2022/12/13 09:45:49;;;;;;;0.60;0.60;;;-1.90;99.90;;;;;;5025678;28;20448;-80
2022/12/13 09:48:20;;;;;;;0.60;0.60;;;-1.80;99.90;;;;;;5029805;28;20529;-79
2022/12/13 09:50:47;;;;;;;0.60;0.60;;;-2.00;99.90;;;;;;5028691;28;20460;-79
2022/12/13 09:53:16;;;;;;;0.60;0.60;;;-2.00;99.90;;;;;;5027765;28;20450;-79
2022/12/13 09:55:45;;;;;;;0.60;0.60;;;-1.90;99.90;;;;;;5020631;28;20513;-79
2022/12/13 09:58:18;;;;;;;0.70;0.70;;;-1.90;99.90;;;;;;5025320;28;20489;-79
2022/12/13 10:00:46;;;;;;;0.70;0.70;;;-1.80;99.90;;;;;;5024953;28;20434;-79
2022/12/13 10:03:15;;;;;;;0.50;0.50;;;-1.80;99.90;;;;;;5025333;28;20533;-79
2022/12/13 10:05:44;;;;;;;0.60;0.60;;;-1.60;99.90;;;;;;5024166;28;20497;-79
2022/12/13 10:08:25;;;;;;;0.50;0.50;;;-1.50;99.90;;;;;;5026435;28;20454;-78
2022/12/13 10:10:54;;;;;;;0.70;0.70;;;-1.40;99.90;;;;;;5025670;28;20472;-79
2022/12/13 10:13:35;;;;;;;0.60;0.60;;;-1.30;99.90;;;;;;5023972;28;20430;-78
2022/12/13 10:16:05;;;;;;;0.60;0.60;;;-1.20;99.90;;;;;;5015638;28;20442;-78
2022/12/13 10:18:37;;;;;;;0.60;0.60;;;-1.10;99.90;;;;;;5016101;28;20601;-79
2022/12/13 10:21:10;;;;;;;0.40;0.40;;;-1.00;99.90;;;;;;5025149;28;20441;-79
2022/12/13 10:23:36;;;;;;;0.60;0.60;;;-1.00;99.90;;;;;;5027281;28;20442;-79
2022/12/13 10:26:08;;;;;;;0.60;0.60;;;-0.90;99.90;;;;;;5024719;28;20516;-79
2022/12/13 10:28:34;;;;;;;0.60;0.60;;;-0.70;99.90;;;;;;5028141;28;20195;-80
2022/12/13 10:31:00;;;;;;;0.57;0.57;;;-0.80;99.90;;;;;;5025002;28;20482;-79
2022/12/13 10:33:37;;;;;;;0.50;0.50;;;-0.80;99.90;;;;;;5025441;28;20450;-80
2022/12/13 10:36:05;;;;;;;0.57;0.57;;;-0.80;99.90;;;;;;5028485;28;20453;-80
2022/12/13 10:38:37;;;;;;;0.50;0.50;;;-0.90;99.90;;;;;;5028534;28;20575;-80
2022/12/13 10:41:28;;;;;;;0.50;0.50;;;-0.80;99.90;;;;;;5019023;28;20446;-80
2022/12/13 10:44:10;;;;;;;0.47;0.47;;;-0.80;99.90;;;;;;5031234;28;20443;-80
2022/12/13 10:46:36;;;;;;;0.50;0.50;;;-0.80;99.90;;;;;;5019291;28;20438;-80
2022/12/13 10:49:02;;;;;;;0.50;0.50;;;-0.80;99.90;;;;;;5044522;28;20440;-80
2022/12/13 10:51:38;;;;;;;0.57;0.57;;;-0.90;99.90;;;;;;5028692;28;20491;-80
2022/12/13 10:54:04;;;;;;;0.60;0.60;;;-0.80;99.90;;;;;;5028133;28;21001;-80
2022/12/13 10:56:35;;;;;;;0.50;0.50;;;-0.80;99.90;;;;;;5025727;28;21082;-80
2022/12/13 10:59:22;;;;;;;0.50;0.50;;;-1.00;99.90;;;;;;5024165;28;20446;-80
2022/12/13 11:01:47;;;;;;;0.50;0.50;;;-1.10;99.90;;;;;;5021319;28;20445;-79
2022/12/13 11:04:33;;;;;;;0.50;0.50;;;-1.20;99.90;;;;;;5045579;28;20437;-81
2022/12/13 11:07:29;;;;;;;0.60;0.60;;;-1.20;99.90;;;;;;5023733;28;20202;-80
2022/12/13 11:10:14;;;;;;;0.50;0.50;;;-1.20;99.90;;;;;;5022343;28;20442;-81
2022/12/13 11:12:40;;;;;;;0.40;0.40;;;-1.30;99.90;;;;;;5029751;28;21056;-80
2022/12/13 11:15:14;;;;;;;0.60;0.60;;;-1.20;99.90;;;;;;5027195;28;21100;-80
2022/12/13 11:17:56;;;;;;;0.60;0.60;;;-1.20;99.90;;;;;;5026222;28;20511;-79
2022/12/13 11:20:29;;;;;;;0.70;0.70;;;-1.20;99.90;;;;;;5023820;28;20438;-80
2022/12/13 11:23:23;;;;;;;0.70;0.70;;;-1.10;99.90;;;;;;5016111;28;20477;-80
2022/12/13 11:25:55;;;;;;;0.60;0.60;;;-1.10;99.90;;;;;;5008034;28;20453;-81
2022/12/13 11:28:57;;;;;;;0.50;0.50;;;-1.10;99.90;;;;;;5025744;28;20453;-80
2022/12/13 11:31:42;;;;;;;0.53;0.53;;;-1.10;99.90;;;;;;5023735;28;20476;-80
2022/12/13 11:34:19;;;;;;;0.70;0.70;;;-1.00;99.90;;;;;;5037377;28;20446;-80
2022/12/13 11:37:05;;;;;;;0.43;0.43;;;-1.10;99.90;;;;;;5025588;28;20461;-80
2022/12/13 11:39:36;;;;;;;0.50;0.50;;;-1.20;99.90;;;;;;5021104;28;20452;-80
2022/12/13 11:42:21;;;;;;;0.70;0.70;;;-1.20;99.90;;;;;;5026850;28;20615;-80
2022/12/13 11:45:37;;;;;;;0.60;0.60;;;-1.10;99.90;;;;;;5029191;28;20469;-80
2022/12/13 11:48:09;;;;;;;0.70;0.70;;;-1.10;99.90;;;;;;5043552;28;20445;-81
2022/12/13 11:50:38;;;;;;;0.40;0.40;;;-1.20;99.90;;;;;;5045682;28;20445;-80
2022/12/13 11:53:25;;;;;;;0.80;0.80;;;-1.20;99.90;;;;;;5028576;28;20450;-81
2022/12/13 11:56:10;;;;;;;0.50;0.50;;;-1.30;99.90;;;;;;5022204;28;20488;-80
2022/12/13 11:58:45;;;;;;;0.60;0.60;;;-1.20;99.90;;;;;;5027893;28;20486;-80
2022/12/13 12:01:15;;;;;;;0.60;0.60;;;-1.20;99.90;;;;;;5023773;28;20434;-81
2022/12/13 12:03:50;;;;;;;0.70;0.70;;;-1.20;99.90;;;;;;5018345;28;20989;-80
2022/12/13 12:06:26;;;;;;;0.60;0.60;;;-1.10;99.90;;;;;;5028082;28;20810;-81
2022/12/13 12:09:14;;;;;;;0.53;0.53;;;-1.10;99.90;;;;;;5023723;28;20443;-80
2022/12/13 12:11:59;;;;;;;0.80;0.80;;;-1.20;99.90;;;;;;5025151;28;20447;-81
2022/12/13 12:14:58;;;;;;;0.43;0.43;;;-1.20;99.90;;;;;;5022620;28;20453;-80
2022/12/13 12:17:25;;;;;;;0.60;0.60;;;-1.20;99.90;;;;;;5025926;28;20505;-81
2022/12/13 12:19:56;;;;;;;0.60;0.60;;;-1.20;99.90;;;;;;5025450;28;20923;-80
2022/12/13 12:22:40;;;;;;;0.70;0.70;;;-1.30;99.90;;;;;;5023060;28;20441;-80
2022/12/13 12:25:23;;;;;;;0.60;0.60;;;-1.30;99.90;;;;;;5030573;28;20548;-80
2022/12/13 12:28:15;;;;;;;0.60;0.60;;;-1.30;99.90;;;;;;5030488;28;20572;-81
2022/12/13 12:31:21;;;;;;;0.40;0.40;;;-1.30;99.90;;;;;;5018927;28;20478;-81
2022/12/13 12:34:24;;;;;;;0.50;0.50;;;-1.30;99.90;;;;;;5028332;28;20441;-82
2022/12/13 12:37:21;;;;;;;0.70;0.70;;;-1.30;99.90;;;;;;5018781;28;20473;-81
2022/12/13 12:40:00;;;;;;;0.60;0.60;;;-1.20;99.90;;;;;;5030547;28;20457;-80
2022/12/13 12:42:33;;;;;;;0.60;0.60;;;-1.20;99.90;;;;;;5031893;28;20574;-81
2022/12/13 12:45:04;;;;;;;0.53;0.53;;;-1.20;99.90;;;;;;5021375;28;20892;-81
2022/12/13 12:47:52;;;;;;;0.40;0.40;;;-1.20;99.90;;;;;;5029707;28;20442;-81
2022/12/13 12:50:34;;;;;;;0.50;0.50;;;-1.20;99.90;;;;;;5030044;28;20468;-80
2022/12/13 12:53:25;;;;;;;0.50;0.50;;;-1.20;99.90;;;;;;5012853;28;20480;-80
2022/12/13 12:55:54;;;;;;;0.50;0.50;;;-1.20;99.90;;;;;;5014373;28;20469;-82
2022/12/13 12:58:38;;;;;;;0.60;0.60;;;-1.10;99.90;;;;;;5044055;28;20502;-82
2022/12/13 13:01:58;;;;;;;0.50;0.50;;;-1.10;99.90;;;;;;5026367;28;20531;-81
2022/12/13 13:04:31;;;;;;;0.63;0.63;;;-1.10;99.90;;;;;;5035771;28;20454;-80
2022/12/13 13:07:06;;;;;;;0.70;0.70;;;-1.00;99.90;;;;;;5028410;28;20445;-80
2022/12/13 13:09:32;;;;;;;0.60;0.60;;;-1.00;99.90;;;;;;5028261;28;20451;-81